createdAt,value
2022-11-14T00:01:11.175Z,18.75
2022-11-14T00:03:38.259Z,18.40
2022-11-14T00:06:07.290Z,18.60
2022-11-14T00:08:34.639Z,21.50
2022-11-14T00:11:01.715Z,19.62
2022-11-14T00:13:28.640Z,20.30
2022-11-14T00:15:55.591Z,20.80
2022-11-14T00:18:23.543Z,19.98
2022-11-14T00:20:52.382Z,20.77
2022-11-14T00:23:21.062Z,22.42
2022-11-14T00:25:48.554Z,22.05
2022-11-14T00:28:15.486Z,23.58
2022-11-14T00:30:42.408Z,25.30
2022-11-14T00:33:09.320Z,25.48
2022-11-14T00:35:36.222Z,21.55
2022-11-14T00:38:03.194Z,23.10
2022-11-14T00:40:30.479Z,22.70
2022-11-14T00:42:57.483Z,23.85
2022-11-14T00:45:24.523Z,22.45
2022-11-14T00:47:51.396Z,23.62
2022-11-14T00:50:18.442Z,24.63
2022-11-14T00:52:45.336Z,21.77
2022-11-14T00:55:12.309Z,24.55
2022-11-14T00:57:39.224Z,25.60
2022-11-14T01:00:07.285Z,22.23
2022-11-14T01:02:34.236Z,25.10
2022-11-14T01:05:02.375Z,24.15
2022-11-14T01:07:29.310Z,23.80
2022-11-14T01:09:56.320Z,23.77
2022-11-14T01:12:23.238Z,22.55
2022-11-14T01:14:50.410Z,22.15
2022-11-14T01:17:17.348Z,21.17
2022-11-14T01:19:44.245Z,21.05
2022-11-14T01:22:11.220Z,22.40
2022-11-14T01:24:38.152Z,24.50
2022-11-14T01:27:05.046Z,24.37
2022-11-14T01:29:31.945Z,28.23
2022-11-14T01:31:58.907Z,27.10
2022-11-14T01:34:26.572Z,27.50
2022-11-14T01:36:53.577Z,27.52
2022-11-14T01:39:20.560Z,28.73
2022-11-14T01:41:47.597Z,33.08
2022-11-14T01:44:38.372Z,31.02
2022-11-14T01:47:06.458Z,29.50
2022-11-14T01:49:39.931Z,27.13
2022-11-14T01:52:14.773Z,28.15
2022-11-14T01:54:46.772Z,27.98
2022-11-14T01:57:16.106Z,26.17
2022-11-14T01:59:47.794Z,28.38
2022-11-14T02:02:18.659Z,30.52
2022-11-14T02:05:00.650Z,30.23
2022-11-14T02:07:29.910Z,33.70
2022-11-14T02:09:59.813Z,32.83
2022-11-14T02:12:26.811Z,31.70
2022-11-14T02:14:55.883Z,30.95
2022-11-14T02:17:31.526Z,30.92
2022-11-14T02:20:06.783Z,30.48
2022-11-14T02:22:33.726Z,28.38
2022-11-14T02:25:00.702Z,27.23
2022-11-14T02:27:27.715Z,26.55
2022-11-14T02:29:54.632Z,24.77
2022-11-14T02:32:21.633Z,26.52
2022-11-14T02:34:48.522Z,25.80
2022-11-14T02:37:15.434Z,27.05
2022-11-14T02:39:42.490Z,26.85
2022-11-14T02:42:09.537Z,28.98
2022-11-14T02:44:36.519Z,26.48
2022-11-14T02:47:03.485Z,25.60
2022-11-14T02:49:30.400Z,20.95
2022-11-14T02:51:57.279Z,21.75
2022-11-14T02:54:24.213Z,23.95
2022-11-14T02:56:51.108Z,20.95
2022-11-14T02:59:18.046Z,20.92
2022-11-14T03:01:45.152Z,22.05
2022-11-14T03:04:12.138Z,20.85
2022-11-14T03:06:39.048Z,20.08
2022-11-14T03:09:06.096Z,18.75
2022-11-14T03:11:33.096Z,19.35
2022-11-14T03:14:00.583Z,17.77
2022-11-14T03:16:27.531Z,18.05
2022-11-14T03:18:54.529Z,18.00
2022-11-14T03:21:23.369Z,16.00
2022-11-14T03:23:50.369Z,18.37
2022-11-14T03:26:17.437Z,16.20
2022-11-14T03:28:44.495Z,14.40
2022-11-14T03:31:13.408Z,15.20
2022-11-14T03:33:40.437Z,13.65
2022-11-14T03:36:08.680Z,11.80
2022-11-14T03:38:35.606Z,13.02
2022-11-14T03:41:02.700Z,13.85
2022-11-14T03:43:34.094Z,10.95
2022-11-14T03:46:02.519Z,10.32
2022-11-14T03:48:30.987Z,10.75
2022-11-14T03:50:58.450Z,11.20
2022-11-14T03:53:25.514Z,11.27
2022-11-14T03:55:52.839Z,12.73
2022-11-14T03:58:19.821Z,10.98
2022-11-14T04:00:46.887Z,11.73
2022-11-14T04:03:13.900Z,11.65
2022-11-14T04:05:44.916Z,10.43
2022-11-14T04:08:11.849Z,10.40
2022-11-14T04:10:39.027Z,11.23
2022-11-14T04:13:06.092Z,10.38
2022-11-14T04:15:33.043Z,11.15
2022-11-14T04:18:00.494Z,10.00
2022-11-14T04:20:27.641Z,9.55
2022-11-14T04:22:54.552Z,8.88
2022-11-14T04:25:21.450Z,9.20
2022-11-14T04:27:48.319Z,10.20
2022-11-14T04:30:15.399Z,11.07
2022-11-14T04:32:42.286Z,9.65
2022-11-14T04:35:09.649Z,10.02
2022-11-14T04:37:38.740Z,10.15
2022-11-14T04:40:06.486Z,10.18
2022-11-14T04:42:33.364Z,10.32
2022-11-14T04:45:00.374Z,10.55
2022-11-14T04:47:27.574Z,9.57
2022-11-14T04:49:54.469Z,11.45
2022-11-14T04:52:21.378Z,9.98
2022-11-14T04:54:48.304Z,11.30
2022-11-14T04:57:16.636Z,9.85
2022-11-14T04:59:43.749Z,10.52
2022-11-14T05:02:10.773Z,12.05
2022-11-14T05:04:37.663Z,13.73
2022-11-14T05:07:04.741Z,11.73
2022-11-14T05:09:31.766Z,11.98
2022-11-14T05:11:58.695Z,11.07
2022-11-14T05:14:25.590Z,11.50
2022-11-14T05:16:52.515Z,11.80
2022-11-14T05:19:19.447Z,11.35
2022-11-14T05:21:46.522Z,11.63
2022-11-14T05:24:13.416Z,11.00
2022-11-14T05:26:40.407Z,12.18
2022-11-14T05:29:07.711Z,11.90
2022-11-14T05:31:34.740Z,11.68
2022-11-14T05:34:01.645Z,12.40
2022-11-14T05:36:28.529Z,11.07
2022-11-14T05:38:56.070Z,10.43
2022-11-14T05:41:22.996Z,10.82
2022-11-14T05:43:49.884Z,10.57
2022-11-14T05:46:17.289Z,11.32
2022-11-14T05:48:44.220Z,10.48
2022-11-14T05:51:12.849Z,11.27
2022-11-14T05:53:40.492Z,12.75
2022-11-14T05:56:11.185Z,11.90
2022-11-14T05:58:38.299Z,14.43
2022-11-14T06:01:06.857Z,14.07
2022-11-14T06:03:35.677Z,12.75
2022-11-14T06:06:03.756Z,12.75
2022-11-14T06:08:32.295Z,13.18
2022-11-14T06:11:15.678Z,13.68
2022-11-14T06:13:43.206Z,14.05
2022-11-14T06:16:12.801Z,16.17
2022-11-14T06:18:39.851Z,13.27
2022-11-14T06:21:10.935Z,13.85
2022-11-14T06:23:38.026Z,13.85
2022-11-14T06:26:24.725Z,12.82
2022-11-14T06:28:53.302Z,14.00
2022-11-14T06:31:21.943Z,13.73
2022-11-14T06:33:49.197Z,12.60
2022-11-14T06:36:16.307Z,12.15
2022-11-14T06:38:43.917Z,12.13
2022-11-14T06:41:16.484Z,12.45
2022-11-14T06:43:47.544Z,10.85
2022-11-14T06:46:17.408Z,11.25
2022-11-14T06:48:45.338Z,12.68
2022-11-14T06:51:13.639Z,13.38
2022-11-14T06:53:41.144Z,11.30
2022-11-14T06:56:16.596Z,11.02
2022-11-14T06:58:46.179Z,10.43
2022-11-14T07:01:14.333Z,11.18
2022-11-14T07:03:42.055Z,12.10
2022-11-14T07:06:11.309Z,11.27
2022-11-14T07:08:38.898Z,10.73
2022-11-14T07:11:22.909Z,10.52
2022-11-14T07:13:55.491Z,9.98
2022-11-14T07:16:31.052Z,9.82
2022-11-14T07:18:59.362Z,9.70
2022-11-14T07:21:27.325Z,10.43
2022-11-14T07:23:54.560Z,9.25
2022-11-14T07:26:21.518Z,10.98
2022-11-14T07:28:52.421Z,8.85
2022-11-14T07:31:21.570Z,9.27
2022-11-14T07:33:48.584Z,11.18
2022-11-14T07:36:16.928Z,10.85
2022-11-14T07:38:44.025Z,12.30
2022-11-14T07:41:15.656Z,14.10
2022-11-14T07:43:43.007Z,12.70
2022-11-14T07:46:17.619Z,13.27
2022-11-14T07:48:45.432Z,12.73
2022-11-14T07:51:18.093Z,12.73
2022-11-14T07:53:45.282Z,12.32
2022-11-14T07:56:13.136Z,13.25
2022-11-14T07:58:42.116Z,13.62
2022-11-14T08:01:12.311Z,14.15
2022-11-14T08:03:45.079Z,15.32
2022-11-14T08:06:15.562Z,12.02
2022-11-14T08:08:42.826Z,13.32
2022-11-14T08:11:09.846Z,12.02
2022-11-14T08:13:36.806Z,13.30
2022-11-14T08:16:13.359Z,16.50
2022-11-14T08:18:41.442Z,14.57
2022-11-14T08:21:08.505Z,14.13
2022-11-14T08:23:35.504Z,14.55
2022-11-14T08:26:02.497Z,15.15
2022-11-14T08:28:29.801Z,17.02
2022-11-14T08:31:04.276Z,18.02
2022-11-14T08:33:32.125Z,20.65
2022-11-14T08:36:03.665Z,17.37
2022-11-14T08:38:32.982Z,15.38
2022-11-14T08:41:04.652Z,14.57
2022-11-14T08:43:32.332Z,14.38
2022-11-14T08:46:02.380Z,12.43
2022-11-14T08:48:31.209Z,10.88
2022-11-14T08:51:02.330Z,10.63
2022-11-14T08:53:29.302Z,14.20
2022-11-14T08:55:56.458Z,15.43
2022-11-14T08:58:23.446Z,16.20
2022-11-14T09:00:52.053Z,14.38
2022-11-14T09:03:23.771Z,14.52
2022-11-14T09:05:53.881Z,11.40
2022-11-14T09:08:21.143Z,10.93
2022-11-14T09:10:48.399Z,11.85
2022-11-14T09:13:15.711Z,12.95
2022-11-14T09:15:43.119Z,14.30
2022-11-14T09:18:11.447Z,14.15
2022-11-14T09:20:40.283Z,14.05
2022-11-14T09:23:07.693Z,15.10
2022-11-14T09:25:35.800Z,15.57
2022-11-14T09:28:09.619Z,14.82
2022-11-14T09:30:37.912Z,14.60
2022-11-14T09:33:10.232Z,14.25
2022-11-14T09:35:38.847Z,15.52
2022-11-14T09:38:08.187Z,17.35
2022-11-14T09:41:03.288Z,15.23
2022-11-14T09:44:09.409Z,16.52
2022-11-14T09:46:46.056Z,14.80
2022-11-14T09:49:35.239Z,15.25
2022-11-14T09:52:40.069Z,15.63
2022-11-14T09:55:37.275Z,15.23
2022-11-14T09:58:05.306Z,18.45
2022-11-14T10:01:03.855Z,18.10
2022-11-14T10:04:09.321Z,18.02
2022-11-14T10:07:05.853Z,16.15
2022-11-14T10:10:11.125Z,15.80
2022-11-14T10:12:58.766Z,15.88
2022-11-14T10:15:35.309Z,15.27
2022-11-14T10:18:23.595Z,16.58
2022-11-14T10:21:27.792Z,16.90
2022-11-14T10:24:03.553Z,15.70
2022-11-14T10:26:32.532Z,15.65
2022-11-14T10:29:34.026Z,15.38
2022-11-14T10:32:33.831Z,16.40
2022-11-14T10:35:21.412Z,18.48
2022-11-14T10:37:56.334Z,17.80
2022-11-14T10:40:38.811Z,19.15
2022-11-14T10:43:21.506Z,17.08
2022-11-14T10:45:55.837Z,18.75
2022-11-14T10:48:31.686Z,18.12
2022-11-14T10:51:05.956Z,18.40
2022-11-14T10:53:58.121Z,19.45
2022-11-14T10:56:25.279Z,19.58
2022-11-14T10:58:52.298Z,20.12
2022-11-14T11:01:38.660Z,20.65
2022-11-14T11:04:31.100Z,18.87
2022-11-14T11:07:41.603Z,16.27
2022-11-14T11:10:41.893Z,16.25
2022-11-14T11:13:14.076Z,16.50
2022-11-14T11:15:42.580Z,17.05
2022-11-14T11:18:42.687Z,18.77
2022-11-14T11:21:11.411Z,17.50
2022-11-14T11:23:58.583Z,17.10
2022-11-14T11:26:31.393Z,17.17
2022-11-14T11:29:18.409Z,16.73
2022-11-14T11:31:57.990Z,16.50
2022-11-14T11:34:31.400Z,15.75
2022-11-14T11:37:18.304Z,19.90
2022-11-14T11:39:58.691Z,18.02
2022-11-14T11:45:46.188Z,16.70
2022-11-14T11:48:21.723Z,16.20
2022-11-14T11:50:50.111Z,14.52
2022-11-14T11:53:45.084Z,16.00
2022-11-14T11:56:31.771Z,14.40
2022-11-14T11:59:28.064Z,14.82
2022-11-14T12:01:55.478Z,16.70
2022-11-14T12:04:22.484Z,15.13
2022-11-14T12:07:14.994Z,16.23
2022-11-14T12:10:09.471Z,15.23
2022-11-14T12:13:08.106Z,14.48
2022-11-14T12:15:58.178Z,15.30
2022-11-14T12:19:01.597Z,16.15
2022-11-14T12:21:46.958Z,16.83
2022-11-14T12:24:35.829Z,17.95
2022-11-14T12:27:13.103Z,18.37
2022-11-14T12:29:58.740Z,16.87
2022-11-14T12:32:40.723Z,14.87
2022-11-14T12:35:19.980Z,13.93
2022-11-14T12:37:55.270Z,15.95
2022-11-14T12:40:41.694Z,16.87
2022-11-14T12:43:36.961Z,15.40
2022-11-14T12:46:13.921Z,17.08
2022-11-14T12:48:45.534Z,15.15
2022-11-14T12:51:25.109Z,14.77
2022-11-14T12:53:53.767Z,16.65
2022-11-14T12:56:56.059Z,15.13
2022-11-14T12:59:38.935Z,19.08
2022-11-14T13:02:49.431Z,17.75
2022-11-14T13:05:19.317Z,18.02
2022-11-14T13:08:04.754Z,17.52
2022-11-14T13:10:37.385Z,16.45
2022-11-14T13:13:30.174Z,17.15
2022-11-14T13:16:18.383Z,18.12
2022-11-14T13:19:16.002Z,18.23
2022-11-14T13:22:11.138Z,18.85
2022-11-14T13:24:59.506Z,19.33
2022-11-14T13:28:05.928Z,18.67
2022-11-14T13:31:01.367Z,18.05
2022-11-14T13:34:01.448Z,19.00
2022-11-14T13:36:39.639Z,18.92
2022-11-14T13:39:31.063Z,19.62
2022-11-14T13:42:24.078Z,17.45
2022-11-14T13:45:02.009Z,18.25
2022-11-14T13:47:50.073Z,19.67
2022-11-14T13:50:37.154Z,19.02
2022-11-14T13:53:24.046Z,19.30
2022-11-14T13:56:01.329Z,20.70
2022-11-14T13:58:59.064Z,20.30
2022-11-14T14:01:31.461Z,19.20
2022-11-14T14:04:17.924Z,19.02
2022-11-14T14:07:13.865Z,19.17
2022-11-14T14:09:43.682Z,17.37
2022-11-14T14:12:18.150Z,16.85
2022-11-14T14:15:08.708Z,19.05
2022-11-14T14:17:49.679Z,18.25
2022-11-14T14:20:22.993Z,17.48
2022-11-14T14:23:17.627Z,18.75
2022-11-14T14:25:56.191Z,18.45
2022-11-14T14:28:32.126Z,18.85
2022-11-14T14:31:16.504Z,17.90
2022-11-14T14:33:48.866Z,19.05
2022-11-14T14:36:28.664Z,17.77
2022-11-14T14:39:18.961Z,17.67
2022-11-14T14:41:46.683Z,17.52
2022-11-14T14:44:29.937Z,18.10
2022-11-14T14:46:57.024Z,18.12
2022-11-14T14:49:36.615Z,17.30
2022-11-14T14:52:36.881Z,18.73
2022-11-14T14:55:06.807Z,16.23
2022-11-14T14:57:34.655Z,17.27
2022-11-14T15:00:05.838Z,17.70
2022-11-14T15:02:32.783Z,15.32
2022-11-14T15:05:00.894Z,15.77
2022-11-14T15:07:30.361Z,16.00
2022-11-14T15:10:00.748Z,16.45
2022-11-14T15:12:30.696Z,18.33
2022-11-14T15:14:59.236Z,17.27
2022-11-14T15:17:27.843Z,18.45
2022-11-14T15:19:57.569Z,18.62
2022-11-14T15:22:29.139Z,17.98
2022-11-14T15:25:17.241Z,20.37
2022-11-14T15:28:00.439Z,20.08
2022-11-14T15:30:36.744Z,19.80
2022-11-14T15:33:06.328Z,19.48
2022-11-14T15:35:35.736Z,19.15
2022-11-14T15:41:22.800Z,18.90
2022-11-14T15:43:53.152Z,19.90
2022-11-14T15:46:35.726Z,19.52
2022-11-14T15:49:14.541Z,18.45
2022-11-14T15:51:52.682Z,16.40
2022-11-14T15:54:41.364Z,18.37
2022-11-14T15:57:16.842Z,18.17
2022-11-14T15:59:43.876Z,18.75
2022-11-14T16:02:23.919Z,18.35
2022-11-14T16:04:52.277Z,18.08
2022-11-14T16:07:20.455Z,16.00
2022-11-14T16:09:48.175Z,18.85
2022-11-14T16:12:15.310Z,17.80
2022-11-14T16:14:42.497Z,16.42
2022-11-14T16:17:17.714Z,16.98
2022-11-14T16:19:44.807Z,16.87
2022-11-14T16:22:17.871Z,16.85
2022-11-14T16:24:44.932Z,16.25
2022-11-14T16:27:11.847Z,14.90
2022-11-14T16:29:38.761Z,15.48
2022-11-14T16:32:05.725Z,15.40
2022-11-14T16:34:32.622Z,14.15
2022-11-14T16:37:02.002Z,15.13
2022-11-14T16:39:29.495Z,16.42
2022-11-14T16:42:02.724Z,16.83
2022-11-14T16:44:31.289Z,17.83
2022-11-14T16:47:00.430Z,14.85
2022-11-14T16:49:27.399Z,16.33
2022-11-14T16:51:56.719Z,17.67
2022-11-14T16:54:24.587Z,17.62
2022-11-14T16:56:51.481Z,16.73
2022-11-14T16:59:18.499Z,17.70
2022-11-14T17:01:46.859Z,15.55
2022-11-14T17:04:13.855Z,16.52
2022-11-14T17:06:40.815Z,16.50
2022-11-14T17:09:07.861Z,15.88
2022-11-14T17:11:35.670Z,15.25
2022-11-14T17:14:02.649Z,15.27
2022-11-14T17:16:29.574Z,14.38
2022-11-14T17:18:56.497Z,14.50
2022-11-14T17:21:24.512Z,14.35
2022-11-14T17:24:01.411Z,13.95
2022-11-14T17:26:29.085Z,14.75
2022-11-14T17:28:56.094Z,12.95
2022-11-14T17:31:23.073Z,13.13
2022-11-14T17:33:54.826Z,12.73
2022-11-14T17:36:23.665Z,12.23
2022-11-14T17:38:50.959Z,13.75
2022-11-14T17:41:17.889Z,12.10
2022-11-14T17:43:45.323Z,13.35
2022-11-14T17:46:16.073Z,13.30
2022-11-14T17:48:44.642Z,12.73
2022-11-14T17:51:14.560Z,12.82
2022-11-14T17:53:41.879Z,13.43
2022-11-14T17:56:15.896Z,15.85
2022-11-14T17:58:43.127Z,12.63
2022-11-14T18:01:15.698Z,13.10
2022-11-14T18:03:43.104Z,12.52
2022-11-14T18:06:13.085Z,12.93
2022-11-14T18:08:39.967Z,14.57
2022-11-14T18:11:10.229Z,14.10
2022-11-14T18:13:37.719Z,13.95
2022-11-14T18:16:44.530Z,15.30
2022-11-14T18:19:13.966Z,16.15
2022-11-14T18:21:43.285Z,16.27
2022-11-14T18:24:13.572Z,15.75
2022-11-14T18:26:40.735Z,16.70
2022-11-14T18:29:07.856Z,16.65
2022-11-14T18:31:34.808Z,17.92
2022-11-14T18:34:02.923Z,15.52
2022-11-14T18:36:29.894Z,18.80
2022-11-14T18:38:58.124Z,19.60
2022-11-14T18:41:25.389Z,18.90
2022-11-14T18:43:56.091Z,18.48
2022-11-14T18:46:25.167Z,21.77
2022-11-14T18:48:59.774Z,24.83
2022-11-14T18:51:29.056Z,22.58
2022-11-14T18:53:59.303Z,25.73
2022-11-14T18:56:26.772Z,23.73
2022-11-14T18:58:55.850Z,23.55
2022-11-14T19:01:26.330Z,25.02
2022-11-14T19:04:02.116Z,24.33
2022-11-14T19:06:32.657Z,24.15
2022-11-14T19:09:11.114Z,25.05
2022-11-14T19:11:57.465Z,26.73
2022-11-14T19:14:24.854Z,25.73
2022-11-14T19:16:51.780Z,25.98
2022-11-14T19:19:18.726Z,28.20
2022-11-14T19:21:50.353Z,25.30
2022-11-14T19:24:17.644Z,24.67
2022-11-14T19:26:44.741Z,26.85
2022-11-14T19:29:13.806Z,27.65
2022-11-14T19:31:41.993Z,28.98
2022-11-14T19:34:10.139Z,28.80
2022-11-14T19:39:24.297Z,27.90
2022-11-14T19:41:51.296Z,27.13
2022-11-14T19:44:18.283Z,28.25
2022-11-14T19:46:47.775Z,28.08
2022-11-14T19:49:15.065Z,29.08
2022-11-14T19:51:42.314Z,25.98
2022-11-14T19:54:10.821Z,27.37
2022-11-14T19:56:37.715Z,28.02
2022-11-14T19:59:11.042Z,28.50
2022-11-14T20:01:42.274Z,24.63
2022-11-14T20:04:12.461Z,25.65
2022-11-14T20:06:40.230Z,26.33
2022-11-14T20:09:09.576Z,26.98
2022-11-14T20:11:37.474Z,25.50
2022-11-14T20:14:05.879Z,27.37
2022-11-14T20:16:37.043Z,28.10
2022-11-14T20:19:04.688Z,26.60
2022-11-14T20:21:33.313Z,27.85
2022-11-14T20:24:00.647Z,25.20
2022-11-14T20:26:28.015Z,24.52
2022-11-14T20:28:55.115Z,25.52
2022-11-14T20:31:25.453Z,27.37
2022-11-14T20:33:53.683Z,24.63
2022-11-14T20:36:24.186Z,25.58
2022-11-14T20:38:52.219Z,23.87
2022-11-14T20:41:20.424Z,25.17
2022-11-14T20:43:47.585Z,26.27
2022-11-14T20:46:17.430Z,26.37
2022-11-14T20:48:45.430Z,27.17
2022-11-14T20:51:24.106Z,25.45
2022-11-14T20:53:53.140Z,26.77
2022-11-14T20:56:20.975Z,28.42
2022-11-14T20:58:49.530Z,24.67
2022-11-14T21:01:17.017Z,24.12
2022-11-14T21:03:44.538Z,24.58
2022-11-14T21:06:15.735Z,24.98
2022-11-14T21:08:43.453Z,24.73
2022-11-14T21:11:16.011Z,24.50
2022-11-14T21:13:59.048Z,26.05
2022-11-14T21:16:34.709Z,25.45
2022-11-14T21:19:02.879Z,24.52
2022-11-14T21:21:31.349Z,25.33
2022-11-14T21:23:58.294Z,24.52
2022-11-14T21:26:27.450Z,25.50
2022-11-14T21:28:56.681Z,24.00
2022-11-14T21:31:31.716Z,24.17
2022-11-14T21:34:00.317Z,24.17
2022-11-14T21:36:45.882Z,24.55
2022-11-14T21:39:15.497Z,25.42
2022-11-14T21:41:43.807Z,25.08
2022-11-14T21:44:13.672Z,25.52
2022-11-14T21:46:41.017Z,22.95
2022-11-14T21:49:08.176Z,22.30
2022-11-14T21:51:35.377Z,23.00
2022-11-14T21:54:06.537Z,23.60
2022-11-14T21:56:35.448Z,24.60
2022-11-14T21:59:14.090Z,24.05
2022-11-14T22:02:01.468Z,25.70
2022-11-14T22:04:29.113Z,24.52
2022-11-14T22:06:56.456Z,24.87
2022-11-14T22:09:23.699Z,23.15
2022-11-14T22:11:50.791Z,22.17
2022-11-14T22:14:17.661Z,24.02
2022-11-14T22:16:44.652Z,23.38
2022-11-14T22:19:11.598Z,24.83
2022-11-14T22:21:38.573Z,23.90
2022-11-14T22:24:05.902Z,23.40
2022-11-14T22:26:35.357Z,24.63
2022-11-14T22:29:02.397Z,25.27
2022-11-14T22:31:29.284Z,25.70
2022-11-14T22:33:58.188Z,23.38
2022-11-14T22:36:26.672Z,24.23
2022-11-14T22:38:55.574Z,25.67
2022-11-14T22:41:30.520Z,24.65
2022-11-14T22:43:59.669Z,22.62
2022-11-14T22:46:27.522Z,22.75
2022-11-14T22:48:55.076Z,23.42
2022-11-14T22:51:27.312Z,23.95
2022-11-14T22:53:56.520Z,24.35
2022-11-14T22:56:27.173Z,21.98
2022-11-14T22:58:54.785Z,24.05
2022-11-14T23:01:32.601Z,24.83
2022-11-14T23:04:02.453Z,25.12
2022-11-14T23:06:31.235Z,22.80
2022-11-14T23:08:58.832Z,22.83
2022-11-14T23:11:28.361Z,25.00
2022-11-14T23:13:56.630Z,24.40
2022-11-14T23:16:26.386Z,24.95
2022-11-14T23:18:55.278Z,24.27
2022-11-14T23:21:25.196Z,24.75
2022-11-14T23:24:01.066Z,23.83
2022-11-14T23:26:29.691Z,22.70
2022-11-14T23:28:57.144Z,24.75
2022-11-14T23:31:24.898Z,23.27
2022-11-14T23:33:55.121Z,23.15
2022-11-14T23:36:22.218Z,23.38
2022-11-14T23:38:51.487Z,24.00
2022-11-14T23:41:24.677Z,23.00
2022-11-14T23:43:51.664Z,23.17
2022-11-14T23:46:18.632Z,23.85
2022-11-14T23:48:45.575Z,23.15
2022-11-14T23:51:13.814Z,23.75
2022-11-14T23:53:41.428Z,21.33
2022-11-14T23:56:12.168Z,23.27
2022-11-14T23:58:39.118Z,23.87
